createdAt,value
2022-08-26T00:01:42.186Z,100854.28
2022-08-26T00:04:12.625Z,100860.25
2022-08-26T00:06:42.674Z,100866.44
2022-08-26T00:09:15.919Z,100881.00
2022-08-26T00:11:43.307Z,100872.00
2022-08-26T00:14:09.900Z,100877.94
2022-08-26T00:16:37.010Z,100879.16
2022-08-26T00:19:07.867Z,100866.44
2022-08-26T00:21:35.163Z,100872.78
2022-08-26T00:24:04.511Z,100872.19
2022-08-26T00:26:33.581Z,100889.41
2022-08-26T00:29:00.145Z,100887.31
2022-08-26T00:31:27.077Z,100889.13
2022-08-26T00:33:53.781Z,100875.19
2022-08-26T00:36:20.641Z,100885.44
2022-08-26T00:38:48.061Z,100877.22
2022-08-26T00:41:15.130Z,100896.50
2022-08-26T00:43:47.324Z,100899.53
2022-08-26T00:46:23.909Z,100894.59
2022-08-26T00:48:53.803Z,100906.91
2022-08-26T00:51:24.954Z,100896.00
2022-08-26T00:54:03.977Z,100896.41
2022-08-26T00:56:36.709Z,100899.25
2022-08-26T00:59:06.857Z,100904.34
2022-08-26T01:01:33.810Z,100892.63
2022-08-26T01:04:01.051Z,100905.16
2022-08-26T01:06:28.512Z,100900.41
2022-08-26T01:08:56.090Z,100897.09
2022-08-26T01:11:24.660Z,100899.56
2022-08-26T01:13:54.715Z,100900.34
2022-08-26T01:16:22.407Z,100906.63
2022-08-26T01:18:49.104Z,100893.69
2022-08-26T01:21:41.282Z,100906.63
2022-08-26T01:24:10.240Z,100909.44
2022-08-26T01:26:42.952Z,100908.41
2022-08-26T01:29:13.024Z,100911.44
2022-08-26T01:31:47.537Z,100918.19
2022-08-26T01:34:30.436Z,100912.25
2022-08-26T01:37:15.550Z,100918.16
2022-08-26T01:39:43.374Z,100917.66
2022-08-26T01:42:14.645Z,100917.44
2022-08-26T01:45:07.233Z,100923.16
2022-08-26T01:47:36.620Z,100924.50
2022-08-26T01:50:13.132Z,100924.94
2022-08-26T01:52:51.643Z,100932.25
2022-08-26T01:55:32.422Z,100921.81
2022-08-26T01:58:04.744Z,100929.78
2022-08-26T02:00:32.768Z,100920.91
2022-08-26T02:03:17.714Z,100931.13
2022-08-26T02:05:53.657Z,100934.53
2022-08-26T02:08:31.036Z,100939.78
2022-08-26T02:10:57.615Z,100933.75
2022-08-26T02:13:30.077Z,100928.00
2022-08-26T02:15:58.489Z,100942.53
2022-08-26T02:18:26.439Z,100944.56
2022-08-26T02:20:55.928Z,100943.56
2022-08-26T02:23:24.021Z,100929.75
2022-08-26T02:25:58.863Z,100951.53
2022-08-26T02:28:29.296Z,100943.94
2022-08-26T02:30:55.829Z,100950.50
2022-08-26T02:33:22.558Z,100957.47
2022-08-26T02:35:49.082Z,100955.19
2022-08-26T02:38:15.602Z,100958.50
2022-08-26T02:40:43.892Z,100961.16
2022-08-26T02:43:12.549Z,100965.22
2022-08-26T02:45:40.254Z,100963.00
2022-08-26T02:48:18.969Z,100955.84
2022-08-26T02:50:46.167Z,100969.97
2022-08-26T02:53:13.326Z,100956.50
2022-08-26T02:55:40.953Z,100958.13
2022-08-26T02:58:09.813Z,100955.66
2022-08-26T03:00:38.369Z,100957.69
2022-08-26T03:03:05.768Z,100961.81
2022-08-26T03:05:32.613Z,100957.69
2022-08-26T03:08:00.849Z,100957.88
2022-08-26T03:10:28.073Z,100953.38
2022-08-26T03:12:54.641Z,100948.88
2022-08-26T03:15:24.384Z,100952.16
2022-08-26T03:17:50.932Z,100952.16
2022-08-26T03:20:18.686Z,100948.50
2022-08-26T03:22:45.964Z,100953.63
2022-08-26T03:25:15.304Z,100948.16
2022-08-26T03:27:43.000Z,100956.94
2022-08-26T03:30:29.252Z,100950.97
2022-08-26T03:32:55.785Z,100954.09
2022-08-26T03:35:22.511Z,100944.56
2022-08-26T03:37:49.133Z,100933.66
2022-08-26T03:40:16.376Z,100953.63
2022-08-26T03:42:47.746Z,100955.94
2022-08-26T03:45:15.985Z,100957.97
2022-08-26T03:47:43.060Z,100960.63
2022-08-26T03:50:11.712Z,100958.78
2022-08-26T03:52:43.543Z,100958.41
2022-08-26T03:55:11.376Z,100952.91
2022-08-26T03:57:37.939Z,100955.94
2022-08-26T04:00:08.226Z,100951.44
2022-08-26T04:02:34.779Z,100949.78
2022-08-26T04:05:02.582Z,100955.13
2022-08-26T04:07:31.994Z,100954.81
2022-08-26T04:09:59.719Z,100949.72
2022-08-26T04:12:26.348Z,100962.00
2022-08-26T04:14:53.825Z,100953.56
2022-08-26T04:17:25.003Z,100953.13
2022-08-26T04:19:54.097Z,100957.59
2022-08-26T04:22:24.022Z,100966.22
2022-08-26T04:24:51.816Z,100955.16
2022-08-26T04:27:18.522Z,100962.56
2022-08-26T04:29:46.508Z,100951.28
2022-08-26T04:32:14.963Z,100960.53
2022-08-26T04:34:43.166Z,100956.41
2022-08-26T04:37:12.096Z,100953.94
2022-08-26T04:39:38.665Z,100960.06
2022-08-26T04:42:05.964Z,100956.78
2022-08-26T04:44:36.002Z,100963.94
2022-08-26T04:47:03.034Z,100959.28
2022-08-26T04:49:35.490Z,100960.81
2022-08-26T04:52:02.796Z,100960.06
2022-08-26T04:54:29.369Z,100960.47
2022-08-26T04:56:55.981Z,100964.13
2022-08-26T04:59:22.929Z,100969.00
2022-08-26T05:01:53.193Z,100977.59
2022-08-26T05:04:20.951Z,100974.94
2022-08-26T05:06:48.920Z,100970.66
2022-08-26T05:09:15.923Z,100980.72
2022-08-26T05:11:42.642Z,100963.69
2022-08-26T05:14:09.742Z,100961.84
2022-08-26T05:16:36.417Z,100977.03
2022-08-26T05:19:04.280Z,100971.16
2022-08-26T05:21:31.207Z,100966.78
2022-08-26T05:23:57.845Z,100967.59
2022-08-26T05:26:28.348Z,100975.22
2022-08-26T05:28:56.217Z,100971.53
2022-08-26T05:31:26.618Z,100975.63
2022-08-26T05:33:54.072Z,100971.16
2022-08-26T05:36:22.944Z,100970.53
2022-08-26T05:38:49.906Z,100985.28
2022-08-26T05:41:34.145Z,100983.44
2022-08-26T05:44:05.422Z,100983.88
2022-08-26T05:46:32.007Z,100979.41
2022-08-26T05:48:59.585Z,100987.03
2022-08-26T05:51:26.834Z,100979.88
2022-08-26T05:53:59.818Z,100987.03
2022-08-26T05:56:27.943Z,100985.75
2022-08-26T05:58:56.160Z,100984.06
2022-08-26T06:01:27.564Z,100982.06
2022-08-26T06:03:59.665Z,101000.16
2022-08-26T06:06:30.824Z,100980.53
2022-08-26T06:08:59.591Z,100992.97
2022-08-26T06:11:27.957Z,101001.16
2022-08-26T06:14:03.121Z,100999.13
2022-08-26T06:16:32.410Z,100999.66
2022-08-26T06:19:02.820Z,100993.06
2022-08-26T06:21:34.713Z,100992.97
2022-08-26T06:24:27.341Z,100989.31
2022-08-26T06:27:01.471Z,100996.16
2022-08-26T06:29:30.087Z,100999.25
2022-08-26T06:31:58.042Z,101000.66
2022-08-26T06:34:26.637Z,100989.00
2022-08-26T06:36:59.624Z,101005.66
2022-08-26T06:39:26.321Z,100997.25
2022-08-26T06:41:53.023Z,101015.31
2022-08-26T06:44:20.936Z,101004.56
2022-08-26T06:46:50.725Z,101013.44
2022-08-26T06:49:18.476Z,101008.69
2022-08-26T06:51:58.246Z,101012.09
2022-08-26T06:54:25.420Z,101013.34
2022-08-26T06:56:52.326Z,101012.31
2022-08-26T06:59:18.822Z,101016.44
2022-08-26T07:01:45.532Z,101019.28
2022-08-26T07:04:21.816Z,101020.75
2022-08-26T07:06:52.919Z,101019.97
2022-08-26T07:09:22.027Z,101029.22
2022-08-26T07:11:49.216Z,101028.16
2022-08-26T07:14:16.830Z,101020.75
2022-08-26T07:16:47.399Z,101026.06
2022-08-26T07:19:17.360Z,101025.41
2022-08-26T07:21:54.171Z,101031.38
2022-08-26T07:24:22.169Z,101036.03
2022-08-26T07:26:49.838Z,101027.09
2022-08-26T07:29:18.599Z,101025.72
2022-08-26T07:31:45.927Z,101027.19
2022-08-26T07:34:13.980Z,101032.50
2022-08-26T07:36:40.596Z,101030.84
2022-08-26T07:39:07.824Z,101031.50
2022-08-26T07:41:34.521Z,101043.78
2022-08-26T07:44:01.177Z,101040.75
2022-08-26T07:46:30.447Z,101045.59
2022-08-26T07:48:58.240Z,101052.78
2022-08-26T07:51:25.614Z,101055.22
2022-08-26T07:53:53.320Z,101052.94
2022-08-26T07:56:22.552Z,101047.81
2022-08-26T07:58:51.418Z,101044.13
2022-08-26T08:01:18.539Z,101059.19
2022-08-26T08:03:45.392Z,101052.78
2022-08-26T08:06:11.929Z,101060.81
2022-08-26T08:08:40.748Z,101060.66
2022-08-26T08:11:07.506Z,101065.13
2022-08-26T08:13:37.442Z,101060.19
2022-08-26T08:16:05.066Z,101052.50
2022-08-26T08:18:31.837Z,101050.56
2022-08-26T08:21:20.922Z,101047.91
2022-08-26T08:23:47.085Z,101054.50
2022-08-26T08:26:14.138Z,101056.13
2022-08-26T08:28:40.977Z,101047.34
2022-08-26T08:31:08.257Z,101060.38
2022-08-26T08:33:35.429Z,101066.78
2022-08-26T08:36:02.169Z,101066.06
2022-08-26T08:38:29.564Z,101062.66
2022-08-26T08:40:56.083Z,101066.41
2022-08-26T08:43:44.868Z,101064.19
2022-08-26T08:46:15.187Z,101062.81
2022-08-26T08:48:48.189Z,101061.16
2022-08-26T08:51:30.177Z,101059.56
2022-08-26T08:53:58.688Z,101052.63
2022-08-26T08:56:43.965Z,101058.16
2022-08-26T08:59:24.104Z,101061.03
2022-08-26T09:01:59.799Z,101062.69
2022-08-26T09:04:45.386Z,101068.38
2022-08-26T09:07:26.520Z,101065.34
2022-08-26T09:10:00.965Z,101062.13
2022-08-26T09:12:33.210Z,101068.69
2022-08-26T09:15:20.382Z,101064.66
2022-08-26T09:18:00.891Z,101065.91
2022-08-26T09:20:40.591Z,101063.97
2022-08-26T09:23:10.375Z,101067.88
2022-08-26T09:28:29.030Z,101074.84
2022-08-26T09:31:23.692Z,101066.50
2022-08-26T09:34:06.200Z,101083.78
2022-08-26T09:36:41.334Z,101085.91
2022-08-26T09:39:29.693Z,101087.19
2022-08-26T09:42:22.784Z,101088.81
2022-08-26T09:44:59.623Z,101080.88
2022-08-26T09:47:38.133Z,101090.31
2022-08-26T09:50:23.662Z,101085.63
2022-08-26T09:53:28.728Z,101078.66
2022-08-26T09:56:25.425Z,101080.75
2022-08-26T09:58:55.550Z,101080.16
2022-08-26T10:01:35.309Z,101074.91
2022-08-26T10:04:09.792Z,101071.59
2022-08-26T10:06:43.740Z,101061.75
2022-08-26T10:09:17.996Z,101071.84
2022-08-26T10:11:56.059Z,101074.09
2022-08-26T10:14:28.764Z,101073.34
2022-08-26T10:17:08.981Z,101072.56
2022-08-26T10:19:55.647Z,101074.00
2022-08-26T10:22:37.267Z,101070.94
2022-08-26T10:25:08.939Z,101075.25
2022-08-26T10:28:03.394Z,101075.84
2022-08-26T10:30:39.066Z,101069.50
2022-08-26T10:33:14.528Z,101076.44
2022-08-26T10:35:53.616Z,101069.69
2022-08-26T10:38:29.339Z,101078.31
2022-08-26T10:40:59.097Z,101071.13
2022-08-26T10:43:52.575Z,101064.75
2022-08-26T10:46:27.375Z,101070.69
2022-08-26T10:49:06.573Z,101062.50
2022-08-26T10:51:38.598Z,101066.19
2022-08-26T10:54:15.165Z,101064.13
2022-08-26T10:56:53.779Z,101054.09
2022-08-26T10:59:45.629Z,101066.81
2022-08-26T11:02:48.299Z,101057.59
2022-08-26T11:05:19.669Z,101061.69
2022-08-26T11:07:48.489Z,101063.56
2022-08-26T11:10:22.572Z,101060.72
2022-08-26T11:12:50.911Z,101053.16
2022-08-26T11:15:24.499Z,101058.28
2022-08-26T11:17:51.508Z,101058.09
2022-08-26T11:20:31.134Z,101048.44
2022-08-26T11:23:23.334Z,101050.72
2022-08-26T11:25:56.360Z,101053.78
2022-08-26T11:28:36.213Z,101046.38
2022-08-26T11:31:05.861Z,101057.06
2022-08-26T11:34:11.546Z,101060.34
2022-08-26T11:36:46.202Z,101057.06
2022-08-26T11:39:53.870Z,101042.59
2022-08-26T11:42:41.595Z,101063.97
2022-08-26T11:45:34.362Z,101061.47
2022-08-26T11:48:21.195Z,101061.22
2022-08-26T11:50:53.912Z,101055.44
2022-08-26T11:53:21.053Z,101069.00
2022-08-26T11:55:52.051Z,101059.13
2022-08-26T11:58:22.380Z,101060.56
2022-08-26T12:01:15.288Z,101062.38
2022-08-26T12:03:50.121Z,101067.97
2022-08-26T12:06:45.065Z,101061.63
2022-08-26T12:09:21.088Z,101057.91
2022-08-26T12:11:47.919Z,101055.22
2022-08-26T12:14:21.441Z,101068.13
2022-08-26T12:16:48.537Z,101061.50
2022-08-26T12:19:27.595Z,101063.41
2022-08-26T12:22:01.195Z,101064.47
2022-08-26T12:24:28.447Z,101070.22
2022-08-26T12:27:29.512Z,101062.00
2022-08-26T12:30:14.964Z,101060.78
2022-08-26T12:32:57.302Z,101062.63
2022-08-26T12:35:25.585Z,101070.41
2022-08-26T12:37:54.177Z,101074.72
2022-08-26T12:40:35.533Z,101065.75
2022-08-26T12:43:05.627Z,101060.19
2022-08-26T12:45:34.237Z,101076.41
2022-08-26T12:48:03.208Z,101075.97
2022-08-26T12:50:34.262Z,101071.44
2022-08-26T12:53:04.648Z,101076.75
2022-08-26T12:55:36.240Z,101074.69
2022-08-26T12:58:31.787Z,101070.38
2022-08-26T13:01:24.921Z,101071.44
2022-08-26T13:03:51.998Z,101056.91
2022-08-26T13:06:26.293Z,101070.03
2022-08-26T13:09:10.063Z,101064.72
2022-08-26T13:11:39.581Z,101071.88
2022-08-26T13:14:23.998Z,101063.06
2022-08-26T13:16:52.100Z,101066.09
2022-08-26T13:19:25.442Z,101058.94
2022-08-26T13:21:54.784Z,101061.19
2022-08-26T13:24:57.840Z,101059.50
2022-08-26T13:27:27.213Z,101066.66
2022-08-26T13:29:55.049Z,101051.00
2022-08-26T13:32:27.530Z,101059.25
2022-08-26T13:34:56.410Z,101051.66
2022-08-26T13:37:34.452Z,101042.19
2022-08-26T13:40:01.829Z,101053.66
2022-08-26T13:42:29.414Z,101051.88
2022-08-26T13:44:58.184Z,101043.25
2022-08-26T13:47:26.102Z,101052.72
2022-08-26T13:49:55.180Z,101052.91
2022-08-26T13:52:30.393Z,101045.44
2022-08-26T13:55:07.984Z,101050.19
2022-08-26T13:57:34.944Z,101043.00
2022-08-26T14:00:02.099Z,101038.56
2022-08-26T14:02:31.357Z,101027.63
2022-08-26T14:04:58.156Z,101026.50
2022-08-26T14:07:26.299Z,101032.88
2022-08-26T14:09:55.829Z,101027.63
2022-08-26T14:12:22.523Z,101033.66
2022-08-26T14:14:49.002Z,101027.94
2022-08-26T14:17:24.476Z,101036.56
2022-08-26T14:19:51.885Z,101041.88
2022-08-26T14:22:22.364Z,101035.94
2022-08-26T14:24:51.846Z,101038.25
2022-08-26T14:27:18.471Z,101031.47
2022-08-26T14:29:45.088Z,101033.31
2022-08-26T14:32:22.901Z,101021.41
2022-08-26T14:34:53.058Z,101036.84
2022-08-26T14:37:21.258Z,101036.28
2022-08-26T14:39:51.180Z,101038.72
2022-08-26T14:42:26.447Z,101034.41
2022-08-26T14:45:01.928Z,101039.97
2022-08-26T14:47:29.749Z,101030.34
2022-08-26T14:49:56.417Z,101031.13
2022-08-26T14:52:23.341Z,101026.38
2022-08-26T14:54:54.870Z,101032.94
2022-08-26T14:57:27.200Z,101034.38
2022-08-26T14:59:53.709Z,101031.72
2022-08-26T15:02:32.832Z,101035.41
2022-08-26T15:05:02.698Z,101027.41
2022-08-26T15:07:29.812Z,101020.19
2022-08-26T15:09:56.401Z,101023.47
2022-08-26T15:12:22.996Z,101030.03
2022-08-26T15:14:49.529Z,101034.56
2022-08-26T15:17:19.313Z,101032.47
2022-08-26T15:19:48.784Z,101036.97
2022-08-26T15:22:15.322Z,101042.31
2022-08-26T15:24:43.719Z,101034.06
2022-08-26T15:27:10.353Z,101021.34
2022-08-26T15:29:37.517Z,101026.06
2022-08-26T15:32:05.389Z,101012.66
2022-08-26T15:34:32.414Z,101021.06
2022-08-26T15:36:59.607Z,101018.34
2022-08-26T15:39:26.163Z,101023.28
2022-08-26T15:41:53.079Z,101018.97
2022-08-26T15:44:20.053Z,101027.94
2022-08-26T15:46:48.313Z,101017.66
2022-08-26T15:49:17.823Z,101024.44
2022-08-26T15:51:46.981Z,101014.38
2022-08-26T15:54:16.566Z,101020.50
2022-08-26T15:56:44.324Z,101026.41
2022-08-26T15:59:14.244Z,101022.66
2022-08-26T16:01:42.898Z,101021.94
2022-08-26T16:04:09.854Z,101011.25
2022-08-26T16:06:41.256Z,101027.03
2022-08-26T16:09:08.319Z,101023.88
2022-08-26T16:11:37.160Z,101019.97
2022-08-26T16:14:04.681Z,101025.66
2022-08-26T16:16:40.129Z,101014.50
2022-08-26T16:19:08.377Z,101018.00
2022-08-26T16:21:38.905Z,101025.63
2022-08-26T16:24:08.911Z,101004.19
2022-08-26T16:26:36.785Z,101028.72
2022-08-26T16:29:07.629Z,101030.19
2022-08-26T16:31:34.808Z,101015.81
2022-08-26T16:34:01.646Z,101027.34
2022-08-26T16:36:30.265Z,101023.41
2022-08-26T16:38:56.833Z,101023.13
2022-08-26T16:41:31.278Z,101028.03
2022-08-26T16:44:01.628Z,101021.44
2022-08-26T16:46:32.024Z,101025.75
2022-08-26T16:48:58.791Z,101034.56
2022-08-26T16:51:28.584Z,101013.13
2022-08-26T16:53:56.878Z,101041.34
2022-08-26T16:56:34.144Z,101047.47
2022-08-26T16:59:01.978Z,101052.16
2022-08-26T17:01:29.566Z,101041.69
2022-08-26T17:03:56.128Z,101038.69
2022-08-26T17:06:22.868Z,101046.44
2022-08-26T17:08:49.647Z,101044.41
2022-08-26T17:11:16.312Z,101048.66
2022-08-26T17:13:42.877Z,101056.84
2022-08-26T17:16:14.346Z,101047.41
2022-08-26T17:18:41.159Z,101052.91
2022-08-26T17:21:10.588Z,101062.53
2022-08-26T17:23:38.518Z,101065.19
2022-08-26T17:26:05.338Z,101057.22
2022-08-26T17:28:32.259Z,101072.53
2022-08-26T17:30:59.839Z,101064.94
2022-08-26T17:33:27.650Z,101075.94
2022-08-26T17:35:55.371Z,101076.78
2022-08-26T17:38:22.885Z,101072.19
2022-08-26T17:40:50.256Z,101073.78
2022-08-26T17:43:17.803Z,101075.41
2022-08-26T17:45:44.443Z,101069.16
2022-08-26T17:48:11.586Z,101075.94
2022-08-26T17:50:39.937Z,101056.97
2022-08-26T17:53:06.641Z,101065.06
2022-08-26T17:55:33.481Z,101077.13
2022-08-26T17:58:00.103Z,101069.94
2022-08-26T18:00:30.585Z,101073.22
2022-08-26T18:02:57.175Z,101068.72
2022-08-26T18:05:23.958Z,101084.50
2022-08-26T18:07:51.445Z,101071.75
2022-08-26T18:10:20.091Z,101080.75
2022-08-26T18:12:47.024Z,101068.38
2022-08-26T18:15:15.232Z,101076.81
2022-08-26T18:17:42.325Z,101071.22
2022-08-26T18:20:13.135Z,101071.59
2022-08-26T18:22:40.487Z,101081.56
2022-08-26T18:25:08.411Z,101083.03
2022-08-26T18:27:36.346Z,101080.75
2022-08-26T18:30:07.183Z,101078.28
2022-08-26T18:32:35.006Z,101075.25
2022-08-26T18:35:01.829Z,101082.88
2022-08-26T18:37:31.467Z,101088.66
2022-08-26T18:39:59.586Z,101094.78
2022-08-26T18:42:27.023Z,101091.03
2022-08-26T18:44:53.890Z,101094.50
2022-08-26T18:47:20.760Z,101093.84
2022-08-26T18:49:48.548Z,101099.63
2022-08-26T18:52:15.485Z,101096.34
2022-08-26T18:54:42.046Z,101105.03
2022-08-26T18:57:08.626Z,101098.78
2022-08-26T18:59:35.209Z,101096.97
2022-08-26T19:02:01.835Z,101113.56
2022-08-26T19:04:28.502Z,101107.97
2022-08-26T19:06:55.988Z,101107.31
2022-08-26T19:09:22.618Z,101119.78
2022-08-26T19:11:50.038Z,101087.88
2022-08-26T19:14:17.098Z,101100.25
2022-08-26T19:16:46.538Z,101113.06
2022-08-26T19:19:14.752Z,101101.88
2022-08-26T19:21:41.407Z,101101.72
2022-08-26T19:24:15.646Z,101105.00
2022-08-26T19:26:44.157Z,101099.88
2022-08-26T19:29:11.787Z,101107.03
2022-08-26T19:31:38.446Z,101081.84
2022-08-26T19:34:05.406Z,101095.94
2022-08-26T19:36:32.796Z,101106.19
2022-08-26T19:39:00.235Z,101117.81
2022-08-26T19:41:37.023Z,101118.19
2022-08-26T19:44:08.577Z,101118.88
2022-08-26T19:46:36.397Z,101119.22
2022-08-26T19:49:03.690Z,101118.75
2022-08-26T19:51:33.605Z,101104.72
2022-08-26T19:54:01.767Z,101108.75
2022-08-26T19:56:29.054Z,101109.06
2022-08-26T19:58:56.603Z,101113.56
2022-08-26T20:01:23.404Z,101104.50
2022-08-26T20:03:50.466Z,101107.16
2022-08-26T20:06:17.835Z,101111.63
2022-08-26T20:08:45.067Z,101109.13
2022-08-26T20:11:16.221Z,101108.31
2022-08-26T20:13:44.252Z,101102.72
2022-08-26T20:16:12.167Z,101107.22
2022-08-26T20:19:00.679Z,101106.09
2022-08-26T20:21:29.411Z,101110.44
2022-08-26T20:23:58.480Z,101105.31
2022-08-26T20:26:31.149Z,101099.03
2022-08-26T20:28:58.409Z,101095.38
2022-08-26T20:31:26.442Z,101110.63
2022-08-26T20:33:53.928Z,101112.63
2022-08-26T20:36:22.629Z,101118.09
2022-08-26T20:38:50.201Z,101112.31
2022-08-26T20:41:17.957Z,101117.75
2022-08-26T20:43:46.191Z,101123.25
2022-08-26T20:46:17.905Z,101133.22
2022-08-26T20:48:45.549Z,101125.06
2022-08-26T20:51:12.401Z,101133.00
2022-08-26T20:53:39.008Z,101129.06
2022-08-26T20:56:08.193Z,101134.03
2022-08-26T20:58:35.188Z,101138.50
2022-08-26T21:01:07.248Z,101132.53
2022-08-26T21:03:35.174Z,101136.56
2022-08-26T21:06:03.650Z,101127.16
2022-08-26T21:08:30.557Z,101131.66
2022-08-26T21:11:00.053Z,101131.50
2022-08-26T21:13:26.614Z,101135.63
2022-08-26T21:15:56.427Z,101131.16
2022-08-26T21:18:23.127Z,101144.94
2022-08-26T21:20:50.254Z,101126.72
2022-08-26T21:23:17.941Z,101135.34
2022-08-26T21:25:45.539Z,101143.47
2022-08-26T21:28:12.127Z,101139.66
2022-08-26T21:30:40.550Z,101123.91
2022-08-26T21:33:07.794Z,101137.31
2022-08-26T21:35:34.699Z,101129.03
2022-08-26T21:38:01.393Z,101126.06
2022-08-26T21:40:28.170Z,101132.84
2022-08-26T21:42:54.813Z,101133.22
2022-08-26T21:45:21.630Z,101129.72
2022-08-26T21:47:48.322Z,101132.22
2022-08-26T21:50:14.881Z,101138.31
2022-08-26T21:52:41.441Z,101125.25
2022-08-26T21:55:08.768Z,101131.38
2022-08-26T21:57:36.406Z,101114.84
2022-08-26T22:00:05.403Z,101131.88
2022-08-26T22:02:32.732Z,101127.25
2022-08-26T22:04:59.420Z,101136.06
2022-08-26T22:07:25.958Z,101137.72
2022-08-26T22:09:52.506Z,101136.25
2022-08-26T22:12:19.089Z,101147.19
2022-08-26T22:14:45.725Z,101136.47
2022-08-26T22:17:12.645Z,101141.56
2022-08-26T22:19:46.111Z,101124.03
2022-08-26T22:22:13.901Z,101124.88
2022-08-26T22:24:40.414Z,101139.63
2022-08-26T22:27:07.184Z,101141.41
2022-08-26T22:29:34.272Z,101139.78
2022-08-26T22:32:01.173Z,101137.13
2022-08-26T22:34:28.141Z,101130.03
2022-08-26T22:36:54.924Z,101127.72
2022-08-26T22:39:24.068Z,101139.13
2022-08-26T22:41:52.011Z,101137.00
2022-08-26T22:44:20.429Z,101146.44
2022-08-26T22:46:48.072Z,101145.59
2022-08-26T22:49:18.289Z,101150.91
2022-08-26T22:51:46.152Z,101134.50
2022-08-26T22:54:13.753Z,101139.16
2022-08-26T22:56:40.372Z,101149.25
2022-08-26T22:59:08.716Z,101149.75
2022-08-26T23:01:37.719Z,101146.09
2022-08-26T23:04:06.251Z,101147.75
2022-08-26T23:06:36.083Z,101144.28
2022-08-26T23:09:02.656Z,101150.25
2022-08-26T23:11:29.197Z,101151.91
2022-08-26T23:13:55.971Z,101156.84
2022-08-26T23:16:22.577Z,101156.84
2022-08-26T23:18:50.346Z,101161.66
2022-08-26T23:21:16.897Z,101154.91
2022-08-26T23:23:45.002Z,101149.13
2022-08-26T23:26:15.484Z,101148.47
2022-08-26T23:28:44.111Z,101160.38
2022-08-26T23:31:10.684Z,101154.56
2022-08-26T23:33:55.764Z,101155.56
2022-08-26T23:36:23.946Z,101158.06
2022-08-26T23:38:52.820Z,101147.63
2022-08-26T23:41:20.153Z,101156.72
2022-08-26T23:43:46.723Z,101158.38
2022-08-26T23:46:13.425Z,101162.69
2022-08-26T23:48:40.023Z,101162.38
2022-08-26T23:51:25.008Z,101159.53
2022-08-26T23:53:51.581Z,101156.41
2022-08-26T23:56:18.722Z,101160.53
2022-08-26T23:58:47.086Z,101156.41
